sensor_id;sensor_type;location;lat;lon;timestamp;temperature;humidity
4725;DHT22;2376;53.544;10.226;2022-12-18T00:02:14;-0.80;99.90
4725;DHT22;2376;53.544;10.226;2022-12-18T00:04:41;-0.90;99.90
4725;DHT22;2376;53.544;10.226;2022-12-18T00:07:07;-0.90;99.90
4725;DHT22;2376;53.544;10.226;2022-12-18T00:09:34;-0.90;99.90
4725;DHT22;2376;53.544;10.226;2022-12-18T00:12:01;-0.90;99.90
4725;DHT22;2376;53.544;10.226;2022-12-18T00:14:27;-0.90;99.90
4725;DHT22;2376;53.544;10.226;2022-12-18T00:16:55;-0.80;99.90
4725;DHT22;2376;53.544;10.226;2022-12-18T00:19:23;-0.80;99.90
4725;DHT22;2376;53.544;10.226;2022-12-18T00:21:50;-0.80;99.90
4725;DHT22;2376;53.544;10.226;2022-12-18T00:24:17;-0.80;99.90
4725;DHT22;2376;53.544;10.226;2022-12-18T00:26:44;-0.80;99.90
4725;DHT22;2376;53.544;10.226;2022-12-18T00:29:12;-0.80;99.90
4725;DHT22;2376;53.544;10.226;2022-12-18T00:31:41;-0.80;99.90
4725;DHT22;2376;53.544;10.226;2022-12-18T00:34:11;-0.80;99.90
4725;DHT22;2376;53.544;10.226;2022-12-18T00:36:39;-0.80;99.90
4725;DHT22;2376;53.544;10.226;2022-12-18T00:39:06;-0.80;99.90
4725;DHT22;2376;53.544;10.226;2022-12-18T00:41:33;-0.90;99.90
4725;DHT22;2376;53.544;10.226;2022-12-18T00:44:18;-0.90;99.90
4725;DHT22;2376;53.544;10.226;2022-12-18T00:46:46;-0.80;99.90
4725;DHT22;2376;53.544;10.226;2022-12-18T00:49:15;-0.80;99.90
4725;DHT22;2376;53.544;10.226;2022-12-18T00:51:43;-0.80;99.90
4725;DHT22;2376;53.544;10.226;2022-12-18T00:54:10;-0.80;99.90
4725;DHT22;2376;53.544;10.226;2022-12-18T00:56:37;-0.80;99.90
4725;DHT22;2376;53.544;10.226;2022-12-18T00:59:04;-0.90;99.90
4725;DHT22;2376;53.544;10.226;2022-12-18T01:01:31;-0.90;99.90
4725;DHT22;2376;53.544;10.226;2022-12-18T01:03:59;-0.90;99.90
4725;DHT22;2376;53.544;10.226;2022-12-18T01:06:27;-0.90;99.90
4725;DHT22;2376;53.544;10.226;2022-12-18T01:08:54;-1.00;99.90
4725;DHT22;2376;53.544;10.226;2022-12-18T01:11:21;-1.00;99.90
4725;DHT22;2376;53.544;10.226;2022-12-18T01:13:48;-1.00;99.90
4725;DHT22;2376;53.544;10.226;2022-12-18T01:16:17;-1.00;99.90
4725;DHT22;2376;53.544;10.226;2022-12-18T01:18:44;-1.00;99.90
4725;DHT22;2376;53.544;10.226;2022-12-18T01:21:14;-1.00;99.90
4725;DHT22;2376;53.544;10.226;2022-12-18T01:23:46;-1.10;99.90
4725;DHT22;2376;53.544;10.226;2022-12-18T01:26:15;-1.00;99.90
4725;DHT22;2376;53.544;10.226;2022-12-18T01:28:42;-1.10;99.90
4725;DHT22;2376;53.544;10.226;2022-12-18T01:31:15;-1.10;99.90
4725;DHT22;2376;53.544;10.226;2022-12-18T01:33:42;-1.10;99.90
4725;DHT22;2376;53.544;10.226;2022-12-18T01:36:15;-1.10;99.90
4725;DHT22;2376;53.544;10.226;2022-12-18T01:38:42;-1.20;99.90
4725;DHT22;2376;53.544;10.226;2022-12-18T01:41:10;-1.20;99.90
4725;DHT22;2376;53.544;10.226;2022-12-18T01:43:42;-1.20;99.90
4725;DHT22;2376;53.544;10.226;2022-12-18T01:46:09;-1.20;99.90
4725;DHT22;2376;53.544;10.226;2022-12-18T01:48:36;-1.20;99.90
4725;DHT22;2376;53.544;10.226;2022-12-18T01:51:04;-1.20;99.90
4725;DHT22;2376;53.544;10.226;2022-12-18T01:53:32;-1.20;99.90
4725;DHT22;2376;53.544;10.226;2022-12-18T01:55:59;-1.20;99.90
4725;DHT22;2376;53.544;10.226;2022-12-18T01:58:33;-1.20;99.90
4725;DHT22;2376;53.544;10.226;2022-12-18T02:01:01;-1.20;99.90
4725;DHT22;2376;53.544;10.226;2022-12-18T02:03:28;-1.20;99.90
4725;DHT22;2376;53.544;10.226;2022-12-18T02:06:00;-1.20;99.90
4725;DHT22;2376;53.544;10.226;2022-12-18T02:08:31;-1.10;99.90
4725;DHT22;2376;53.544;10.226;2022-12-18T02:11:05;-1.20;99.90
4725;DHT22;2376;53.544;10.226;2022-12-18T02:13:39;-1.20;99.90
4725;DHT22;2376;53.544;10.226;2022-12-18T02:16:13;-1.20;99.90
4725;DHT22;2376;53.544;10.226;2022-12-18T02:18:45;-1.20;99.90
4725;DHT22;2376;53.544;10.226;2022-12-18T02:21:20;-1.20;99.90
4725;DHT22;2376;53.544;10.226;2022-12-18T02:23:56;-1.20;99.90
4725;DHT22;2376;53.544;10.226;2022-12-18T02:26:28;-1.30;99.90
4725;DHT22;2376;53.544;10.226;2022-12-18T02:29:02;-1.30;99.90
4725;DHT22;2376;53.544;10.226;2022-12-18T02:31:34;-1.30;99.90
4725;DHT22;2376;53.544;10.226;2022-12-18T02:34:04;-1.20;99.90
4725;DHT22;2376;53.544;10.226;2022-12-18T02:36:33;-1.30;99.90
4725;DHT22;2376;53.544;10.226;2022-12-18T02:39:01;-1.30;99.90
4725;DHT22;2376;53.544;10.226;2022-12-18T02:41:30;-1.30;99.90
4725;DHT22;2376;53.544;10.226;2022-12-18T02:44:00;-1.30;99.90
4725;DHT22;2376;53.544;10.226;2022-12-18T02:46:31;-1.30;99.90
4725;DHT22;2376;53.544;10.226;2022-12-18T02:49:08;-1.30;99.90
4725;DHT22;2376;53.544;10.226;2022-12-18T02:51:47;-1.30;99.90
4725;DHT22;2376;53.544;10.226;2022-12-18T02:54:23;-1.30;99.90
4725;DHT22;2376;53.544;10.226;2022-12-18T02:56:57;-1.30;99.90
4725;DHT22;2376;53.544;10.226;2022-12-18T02:59:31;-1.30;99.90
4725;DHT22;2376;53.544;10.226;2022-12-18T03:02:08;-1.40;99.90
4725;DHT22;2376;53.544;10.226;2022-12-18T03:04:39;-1.30;99.90
4725;DHT22;2376;53.544;10.226;2022-12-18T03:07:11;-1.30;99.90
4725;DHT22;2376;53.544;10.226;2022-12-18T03:09:44;-1.30;99.90
4725;DHT22;2376;53.544;10.226;2022-12-18T03:12:17;-1.20;99.90
4725;DHT22;2376;53.544;10.226;2022-12-18T03:14:54;-1.30;99.90
4725;DHT22;2376;53.544;10.226;2022-12-18T03:17:26;-1.30;99.90
4725;DHT22;2376;53.544;10.226;2022-12-18T03:19:56;-1.30;99.90
4725;DHT22;2376;53.544;10.226;2022-12-18T03:22:27;-1.40;99.90
4725;DHT22;2376;53.544;10.226;2022-12-18T03:24:56;-1.40;99.90
4725;DHT22;2376;53.544;10.226;2022-12-18T03:27:26;-1.50;99.90
4725;DHT22;2376;53.544;10.226;2022-12-18T03:29:59;-1.50;99.90
4725;DHT22;2376;53.544;10.226;2022-12-18T03:32:35;-1.60;99.90
4725;DHT22;2376;53.544;10.226;2022-12-18T03:35:04;-1.60;99.90
4725;DHT22;2376;53.544;10.226;2022-12-18T03:37:32;-1.60;99.90
4725;DHT22;2376;53.544;10.226;2022-12-18T03:39:59;-1.70;99.90
4725;DHT22;2376;53.544;10.226;2022-12-18T03:42:29;-1.80;99.90
4725;DHT22;2376;53.544;10.226;2022-12-18T03:45:03;-1.90;99.90
4725;DHT22;2376;53.544;10.226;2022-12-18T03:47:34;-2.00;99.90
4725;DHT22;2376;53.544;10.226;2022-12-18T03:50:07;-2.00;99.90
4725;DHT22;2376;53.544;10.226;2022-12-18T03:52:38;-2.00;99.90
4725;DHT22;2376;53.544;10.226;2022-12-18T03:55:07;-2.10;99.90
4725;DHT22;2376;53.544;10.226;2022-12-18T03:57:37;-2.10;99.90
4725;DHT22;2376;53.544;10.226;2022-12-18T04:00:07;-2.10;99.90
4725;DHT22;2376;53.544;10.226;2022-12-18T04:02:35;-2.10;99.90
4725;DHT22;2376;53.544;10.226;2022-12-18T04:05:05;-2.10;99.90
4725;DHT22;2376;53.544;10.226;2022-12-18T04:07:33;-2.10;99.90
4725;DHT22;2376;53.544;10.226;2022-12-18T04:10:01;-2.00;99.90
4725;DHT22;2376;53.544;10.226;2022-12-18T04:12:29;-2.00;99.90
4725;DHT22;2376;53.544;10.226;2022-12-18T04:14:57;-2.00;99.90
4725;DHT22;2376;53.544;10.226;2022-12-18T04:17:24;-2.00;99.90
4725;DHT22;2376;53.544;10.226;2022-12-18T04:19:51;-2.00;99.90
4725;DHT22;2376;53.544;10.226;2022-12-18T04:22:18;-2.00;99.90
4725;DHT22;2376;53.544;10.226;2022-12-18T04:24:44;-1.90;99.90
4725;DHT22;2376;53.544;10.226;2022-12-18T04:27:11;-1.90;99.90
4725;DHT22;2376;53.544;10.226;2022-12-18T04:29:38;-1.90;99.90
4725;DHT22;2376;53.544;10.226;2022-12-18T04:32:07;-1.90;99.90
4725;DHT22;2376;53.544;10.226;2022-12-18T04:34:33;-1.90;99.90
4725;DHT22;2376;53.544;10.226;2022-12-18T04:37:00;-1.90;99.90
4725;DHT22;2376;53.544;10.226;2022-12-18T04:39:27;-1.90;99.90
4725;DHT22;2376;53.544;10.226;2022-12-18T04:41:53;-1.90;99.90
4725;DHT22;2376;53.544;10.226;2022-12-18T04:44:20;-1.90;99.90
4725;DHT22;2376;53.544;10.226;2022-12-18T04:46:47;-1.80;99.90
4725;DHT22;2376;53.544;10.226;2022-12-18T04:49:15;-1.80;99.90
4725;DHT22;2376;53.544;10.226;2022-12-18T04:51:41;-1.80;99.90
4725;DHT22;2376;53.544;10.226;2022-12-18T04:54:08;-1.80;99.90
4725;DHT22;2376;53.544;10.226;2022-12-18T04:56:35;-1.80;99.90
4725;DHT22;2376;53.544;10.226;2022-12-18T04:59:01;-1.70;99.90
4725;DHT22;2376;53.544;10.226;2022-12-18T05:01:28;-1.70;99.90
4725;DHT22;2376;53.544;10.226;2022-12-18T05:03:55;-1.70;99.90
4725;DHT22;2376;53.544;10.226;2022-12-18T05:06:23;-1.70;99.90
4725;DHT22;2376;53.544;10.226;2022-12-18T05:08:50;-1.70;99.90
4725;DHT22;2376;53.544;10.226;2022-12-18T05:11:17;-1.70;99.90
4725;DHT22;2376;53.544;10.226;2022-12-18T05:13:44;-1.70;99.90
4725;DHT22;2376;53.544;10.226;2022-12-18T05:16:11;-1.80;99.90
4725;DHT22;2376;53.544;10.226;2022-12-18T05:18:38;-1.70;99.90
4725;DHT22;2376;53.544;10.226;2022-12-18T05:21:05;-1.70;99.90
4725;DHT22;2376;53.544;10.226;2022-12-18T05:23:33;-1.70;99.90
4725;DHT22;2376;53.544;10.226;2022-12-18T05:26:01;-1.70;99.90
4725;DHT22;2376;53.544;10.226;2022-12-18T05:28:30;-1.70;99.90
4725;DHT22;2376;53.544;10.226;2022-12-18T05:30:58;-1.80;99.90
4725;DHT22;2376;53.544;10.226;2022-12-18T05:33:28;-1.80;99.90
4725;DHT22;2376;53.544;10.226;2022-12-18T05:35:56;-1.80;99.90
4725;DHT22;2376;53.544;10.226;2022-12-18T05:38:24;-1.80;99.90
4725;DHT22;2376;53.544;10.226;2022-12-18T05:40:53;-1.80;99.90
4725;DHT22;2376;53.544;10.226;2022-12-18T05:43:21;-1.80;99.90
4725;DHT22;2376;53.544;10.226;2022-12-18T05:45:48;-1.80;99.90
4725;DHT22;2376;53.544;10.226;2022-12-18T05:48:15;-1.90;99.90
4725;DHT22;2376;53.544;10.226;2022-12-18T05:50:44;-1.90;99.90
4725;DHT22;2376;53.544;10.226;2022-12-18T05:53:12;-1.90;99.90
4725;DHT22;2376;53.544;10.226;2022-12-18T05:55:40;-2.00;99.90
4725;DHT22;2376;53.544;10.226;2022-12-18T05:58:09;-2.00;99.90
4725;DHT22;2376;53.544;10.226;2022-12-18T06:00:38;-2.00;99.90
4725;DHT22;2376;53.544;10.226;2022-12-18T06:03:05;-2.00;99.90
4725;DHT22;2376;53.544;10.226;2022-12-18T06:05:34;-2.10;99.90
4725;DHT22;2376;53.544;10.226;2022-12-18T06:08:02;-2.00;99.90
4725;DHT22;2376;53.544;10.226;2022-12-18T06:10:29;-2.00;99.90
4725;DHT22;2376;53.544;10.226;2022-12-18T06:12:55;-2.00;99.90
4725;DHT22;2376;53.544;10.226;2022-12-18T06:15:23;-2.10;99.90
4725;DHT22;2376;53.544;10.226;2022-12-18T06:17:50;-2.10;99.90
4725;DHT22;2376;53.544;10.226;2022-12-18T06:20:17;-2.10;99.90
4725;DHT22;2376;53.544;10.226;2022-12-18T06:22:44;-2.10;99.90
4725;DHT22;2376;53.544;10.226;2022-12-18T06:25:11;-2.10;99.90
4725;DHT22;2376;53.544;10.226;2022-12-18T06:27:38;-2.10;99.90
4725;DHT22;2376;53.544;10.226;2022-12-18T06:30:05;-2.10;99.90
4725;DHT22;2376;53.544;10.226;2022-12-18T06:32:34;-2.10;99.90
4725;DHT22;2376;53.544;10.226;2022-12-18T06:35:01;-2.10;99.90
4725;DHT22;2376;53.544;10.226;2022-12-18T06:37:27;-2.10;99.90
4725;DHT22;2376;53.544;10.226;2022-12-18T06:39:54;-2.10;99.90
4725;DHT22;2376;53.544;10.226;2022-12-18T06:42:22;-2.20;99.90
4725;DHT22;2376;53.544;10.226;2022-12-18T06:44:48;-2.20;99.90
4725;DHT22;2376;53.544;10.226;2022-12-18T06:47:15;-2.20;99.90
4725;DHT22;2376;53.544;10.226;2022-12-18T06:49:43;-2.20;99.90
4725;DHT22;2376;53.544;10.226;2022-12-18T06:52:10;-2.20;99.90
4725;DHT22;2376;53.544;10.226;2022-12-18T06:54:37;-2.20;99.90
4725;DHT22;2376;53.544;10.226;2022-12-18T06:57:03;-2.30;99.90
4725;DHT22;2376;53.544;10.226;2022-12-18T06:59:30;-2.30;99.90
4725;DHT22;2376;53.544;10.226;2022-12-18T07:01:57;-2.30;99.90
4725;DHT22;2376;53.544;10.226;2022-12-18T07:04:27;-2.30;99.90
4725;DHT22;2376;53.544;10.226;2022-12-18T07:06:55;-2.20;99.90
4725;DHT22;2376;53.544;10.226;2022-12-18T07:09:22;-2.20;99.90
4725;DHT22;2376;53.544;10.226;2022-12-18T07:11:49;-2.20;99.90
4725;DHT22;2376;53.544;10.226;2022-12-18T07:14:16;-2.20;99.90
4725;DHT22;2376;53.544;10.226;2022-12-18T07:16:43;-2.20;99.90
4725;DHT22;2376;53.544;10.226;2022-12-18T07:19:09;-2.20;99.90
4725;DHT22;2376;53.544;10.226;2022-12-18T07:21:36;-2.20;99.90
4725;DHT22;2376;53.544;10.226;2022-12-18T07:24:05;-2.20;99.90
4725;DHT22;2376;53.544;10.226;2022-12-18T07:26:32;-2.20;99.90
4725;DHT22;2376;53.544;10.226;2022-12-18T07:28:59;-2.20;99.90
4725;DHT22;2376;53.544;10.226;2022-12-18T07:31:30;-2.20;99.90
4725;DHT22;2376;53.544;10.226;2022-12-18T07:33:56;-2.20;99.90
4725;DHT22;2376;53.544;10.226;2022-12-18T07:36:24;-2.20;99.90
4725;DHT22;2376;53.544;10.226;2022-12-18T07:38:51;-2.30;99.90
4725;DHT22;2376;53.544;10.226;2022-12-18T07:41:20;-2.30;99.90
4725;DHT22;2376;53.544;10.226;2022-12-18T07:43:47;-2.30;99.90
4725;DHT22;2376;53.544;10.226;2022-12-18T07:46:15;-2.30;99.90
4725;DHT22;2376;53.544;10.226;2022-12-18T07:48:42;-2.30;99.90
4725;DHT22;2376;53.544;10.226;2022-12-18T07:51:10;-2.20;99.90
4725;DHT22;2376;53.544;10.226;2022-12-18T07:53:37;-2.20;99.90
4725;DHT22;2376;53.544;10.226;2022-12-18T07:56:07;-2.20;99.90
4725;DHT22;2376;53.544;10.226;2022-12-18T07:58:36;-2.20;99.90
4725;DHT22;2376;53.544;10.226;2022-12-18T08:01:04;-2.20;99.90
4725;DHT22;2376;53.544;10.226;2022-12-18T08:03:31;-2.20;99.90
4725;DHT22;2376;53.544;10.226;2022-12-18T08:05:59;-2.20;99.90
4725;DHT22;2376;53.544;10.226;2022-12-18T08:08:35;-2.10;99.90
4725;DHT22;2376;53.544;10.226;2022-12-18T08:11:10;-2.10;99.90
4725;DHT22;2376;53.544;10.226;2022-12-18T08:13:39;-2.10;99.90
4725;DHT22;2376;53.544;10.226;2022-12-18T08:16:07;-2.00;99.90
4725;DHT22;2376;53.544;10.226;2022-12-18T08:18:35;-2.00;99.90
4725;DHT22;2376;53.544;10.226;2022-12-18T08:21:08;-1.90;99.90
4725;DHT22;2376;53.544;10.226;2022-12-18T08:23:35;-2.00;99.90
4725;DHT22;2376;53.544;10.226;2022-12-18T08:26:02;-1.90;99.90
4725;DHT22;2376;53.544;10.226;2022-12-18T08:28:28;-1.90;99.90
4725;DHT22;2376;53.544;10.226;2022-12-18T08:30:57;-1.90;99.90
4725;DHT22;2376;53.544;10.226;2022-12-18T08:33:26;-1.90;99.90
4725;DHT22;2376;53.544;10.226;2022-12-18T08:35:53;-1.90;99.90
4725;DHT22;2376;53.544;10.226;2022-12-18T08:38:20;-1.90;99.90
4725;DHT22;2376;53.544;10.226;2022-12-18T08:40:49;-1.80;99.90
4725;DHT22;2376;53.544;10.226;2022-12-18T08:43:17;-1.80;99.90
4725;DHT22;2376;53.544;10.226;2022-12-18T08:46:02;-1.70;99.90
4725;DHT22;2376;53.544;10.226;2022-12-18T08:48:29;-1.70;99.90
4725;DHT22;2376;53.544;10.226;2022-12-18T08:50:56;-1.70;99.90
4725;DHT22;2376;53.544;10.226;2022-12-18T08:53:23;-1.60;99.90
4725;DHT22;2376;53.544;10.226;2022-12-18T08:55:50;-1.70;99.90
4725;DHT22;2376;53.544;10.226;2022-12-18T08:58:17;-1.60;99.90
4725;DHT22;2376;53.544;10.226;2022-12-18T09:00:44;-1.60;99.90
4725;DHT22;2376;53.544;10.226;2022-12-18T09:03:12;-1.70;99.90
4725;DHT22;2376;53.544;10.226;2022-12-18T09:05:39;-1.70;99.90
4725;DHT22;2376;53.544;10.226;2022-12-18T09:08:06;-1.70;99.90
4725;DHT22;2376;53.544;10.226;2022-12-18T09:10:33;-1.60;99.90
4725;DHT22;2376;53.544;10.226;2022-12-18T09:13:00;-1.60;99.90
4725;DHT22;2376;53.544;10.226;2022-12-18T09:15:27;-1.60;99.90
4725;DHT22;2376;53.544;10.226;2022-12-18T09:17:54;-1.60;99.90
4725;DHT22;2376;53.544;10.226;2022-12-18T09:20:22;-1.60;99.90
4725;DHT22;2376;53.544;10.226;2022-12-18T09:22:48;-1.60;99.90
4725;DHT22;2376;53.544;10.226;2022-12-18T09:25:15;-1.60;99.90
4725;DHT22;2376;53.544;10.226;2022-12-18T09:27:42;-1.50;99.90
4725;DHT22;2376;53.544;10.226;2022-12-18T09:30:09;-1.40;99.90
4725;DHT22;2376;53.544;10.226;2022-12-18T09:32:36;-1.40;99.90
4725;DHT22;2376;53.544;10.226;2022-12-18T09:35:03;-1.40;99.90
4725;DHT22;2376;53.544;10.226;2022-12-18T09:37:32;-1.30;99.90
4725;DHT22;2376;53.544;10.226;2022-12-18T09:39:58;-1.20;99.90
4725;DHT22;2376;53.544;10.226;2022-12-18T09:42:25;-1.20;99.90
4725;DHT22;2376;53.544;10.226;2022-12-18T09:44:53;-1.20;99.90
4725;DHT22;2376;53.544;10.226;2022-12-18T09:47:23;-1.20;99.90
4725;DHT22;2376;53.544;10.226;2022-12-18T09:49:53;-1.20;99.90
4725;DHT22;2376;53.544;10.226;2022-12-18T09:52:25;-1.20;99.90
4725;DHT22;2376;53.544;10.226;2022-12-18T09:54:58;-1.10;99.90
4725;DHT22;2376;53.544;10.226;2022-12-18T09:57:25;-1.10;99.90
4725;DHT22;2376;53.544;10.226;2022-12-18T09:59:55;-1.20;99.90
4725;DHT22;2376;53.544;10.226;2022-12-18T10:02:24;-1.10;99.90
4725;DHT22;2376;53.544;10.226;2022-12-18T10:05:02;-1.00;99.90
4725;DHT22;2376;53.544;10.226;2022-12-18T10:07:35;-1.00;99.90
4725;DHT22;2376;53.544;10.226;2022-12-18T10:10:13;-0.90;99.90
4725;DHT22;2376;53.544;10.226;2022-12-18T10:12:45;-0.90;99.90
4725;DHT22;2376;53.544;10.226;2022-12-18T10:15:19;-0.90;99.90
4725;DHT22;2376;53.544;10.226;2022-12-18T10:17:54;-0.80;99.90
4725;DHT22;2376;53.544;10.226;2022-12-18T10:20:29;-0.70;99.90
4725;DHT22;2376;53.544;10.226;2022-12-18T10:23:02;-0.70;99.90
4725;DHT22;2376;53.544;10.226;2022-12-18T10:25:36;-0.60;99.90
4725;DHT22;2376;53.544;10.226;2022-12-18T10:28:10;-0.70;99.90
4725;DHT22;2376;53.544;10.226;2022-12-18T10:30:39;-0.60;99.90
4725;DHT22;2376;53.544;10.226;2022-12-18T10:33:10;-0.50;99.90
4725;DHT22;2376;53.544;10.226;2022-12-18T10:35:41;-0.60;99.90
4725;DHT22;2376;53.544;10.226;2022-12-18T10:38:21;-0.50;99.90
4725;DHT22;2376;53.544;10.226;2022-12-18T10:40:52;-0.50;99.90
4725;DHT22;2376;53.544;10.226;2022-12-18T10:43:24;-0.40;99.90
4725;DHT22;2376;53.544;10.226;2022-12-18T10:46:02;-0.40;99.90
4725;DHT22;2376;53.544;10.226;2022-12-18T10:48:34;-0.40;99.90
4725;DHT22;2376;53.544;10.226;2022-12-18T10:51:02;-0.40;99.90
4725;DHT22;2376;53.544;10.226;2022-12-18T10:53:31;-0.40;99.90
4725;DHT22;2376;53.544;10.226;2022-12-18T10:56:02;-0.40;99.90
4725;DHT22;2376;53.544;10.226;2022-12-18T10:58:32;-0.30;99.90
4725;DHT22;2376;53.544;10.226;2022-12-18T11:01:07;-0.20;99.90
4725;DHT22;2376;53.544;10.226;2022-12-18T11:03:37;-0.20;99.90
4725;DHT22;2376;53.544;10.226;2022-12-18T11:06:08;-0.20;99.90
4725;DHT22;2376;53.544;10.226;2022-12-18T11:08:36;-0.30;99.90
4725;DHT22;2376;53.544;10.226;2022-12-18T11:11:14;-0.20;99.90
4725;DHT22;2376;53.544;10.226;2022-12-18T11:13:58;-0.10;99.90
4725;DHT22;2376;53.544;10.226;2022-12-18T11:16:26;0.00;99.90
4725;DHT22;2376;53.544;10.226;2022-12-18T11:18:54;0.10;99.90
4725;DHT22;2376;53.544;10.226;2022-12-18T11:21:21;0.20;99.90
4725;DHT22;2376;53.544;10.226;2022-12-18T11:23:50;0.30;99.90
4725;DHT22;2376;53.544;10.226;2022-12-18T11:26:18;0.30;99.90
4725;DHT22;2376;53.544;10.226;2022-12-18T11:28:49;0.40;99.90
4725;DHT22;2376;53.544;10.226;2022-12-18T11:31:20;0.40;99.90
4725;DHT22;2376;53.544;10.226;2022-12-18T11:33:52;0.40;99.90
4725;DHT22;2376;53.544;10.226;2022-12-18T11:36:22;0.40;99.90
4725;DHT22;2376;53.544;10.226;2022-12-18T11:38:51;0.40;99.90
4725;DHT22;2376;53.544;10.226;2022-12-18T11:41:25;0.40;99.90
4725;DHT22;2376;53.544;10.226;2022-12-18T11:44:16;0.40;99.90
4725;DHT22;2376;53.544;10.226;2022-12-18T11:46:51;0.40;99.90
4725;DHT22;2376;53.544;10.226;2022-12-18T11:49:22;0.50;99.90
4725;DHT22;2376;53.544;10.226;2022-12-18T11:51:55;0.60;99.90
4725;DHT22;2376;53.544;10.226;2022-12-18T11:54:24;0.60;99.90
4725;DHT22;2376;53.544;10.226;2022-12-18T11:56:56;0.70;99.90
4725;DHT22;2376;53.544;10.226;2022-12-18T11:59:32;0.70;99.90
4725;DHT22;2376;53.544;10.226;2022-12-18T12:02:11;0.60;99.90
4725;DHT22;2376;53.544;10.226;2022-12-18T12:04:53;0.60;99.90
4725;DHT22;2376;53.544;10.226;2022-12-18T12:07:31;0.50;99.90
4725;DHT22;2376;53.544;10.226;2022-12-18T12:10:07;0.60;99.90
4725;DHT22;2376;53.544;10.226;2022-12-18T12:12:52;0.60;99.90
4725;DHT22;2376;53.544;10.226;2022-12-18T12:15:30;0.70;99.90
4725;DHT22;2376;53.544;10.226;2022-12-18T12:18:07;0.60;99.90
4725;DHT22;2376;53.544;10.226;2022-12-18T12:20:42;0.70;99.90
4725;DHT22;2376;53.544;10.226;2022-12-18T12:23:18;0.70;99.90
4725;DHT22;2376;53.544;10.226;2022-12-18T12:25:50;0.80;99.90
4725;DHT22;2376;53.544;10.226;2022-12-18T12:28:34;0.90;99.90
4725;DHT22;2376;53.544;10.226;2022-12-18T12:31:10;0.90;99.90
4725;DHT22;2376;53.544;10.226;2022-12-18T12:33:46;0.90;99.90
4725;DHT22;2376;53.544;10.226;2022-12-18T12:36:25;0.90;99.90
4725;DHT22;2376;53.544;10.226;2022-12-18T12:38:58;0.90;99.90
4725;DHT22;2376;53.544;10.226;2022-12-18T12:41:30;0.90;99.90
4725;DHT22;2376;53.544;10.226;2022-12-18T12:44:19;0.90;99.90
4725;DHT22;2376;53.544;10.226;2022-12-18T12:46:48;0.90;99.90
4725;DHT22;2376;53.544;10.226;2022-12-18T12:49:17;1.00;99.90
4725;DHT22;2376;53.544;10.226;2022-12-18T12:51:55;1.00;99.90
4725;DHT22;2376;53.544;10.226;2022-12-18T12:54:25;0.90;99.90
4725;DHT22;2376;53.544;10.226;2022-12-18T12:56:59;0.80;99.90
4725;DHT22;2376;53.544;10.226;2022-12-18T12:59:37;0.90;99.90
4725;DHT22;2376;53.544;10.226;2022-12-18T13:02:13;0.80;99.90
4725;DHT22;2376;53.544;10.226;2022-12-18T13:04:48;0.90;99.90
4725;DHT22;2376;53.544;10.226;2022-12-18T13:07:19;0.90;99.90
4725;DHT22;2376;53.544;10.226;2022-12-18T13:10:11;0.90;99.90
4725;DHT22;2376;53.544;10.226;2022-12-18T13:12:51;1.00;99.90
4725;DHT22;2376;53.544;10.226;2022-12-18T13:15:37;1.00;99.90
4725;DHT22;2376;53.544;10.226;2022-12-18T13:18:20;0.90;99.90
4725;DHT22;2376;53.544;10.226;2022-12-18T13:20:50;0.90;99.90
4725;DHT22;2376;53.544;10.226;2022-12-18T13:23:29;0.80;99.90
4725;DHT22;2376;53.544;10.226;2022-12-18T13:25:57;1.00;99.90
4725;DHT22;2376;53.544;10.226;2022-12-18T13:28:49;1.00;99.90
4725;DHT22;2376;53.544;10.226;2022-12-18T13:34:34;1.10;99.90
4725;DHT22;2376;53.544;10.226;2022-12-18T13:43:32;1.30;99.90
4725;DHT22;2376;53.544;10.226;2022-12-18T13:49:02;1.20;99.90
4725;DHT22;2376;53.544;10.226;2022-12-18T13:51:32;1.20;99.90
4725;DHT22;2376;53.544;10.226;2022-12-18T13:54:01;1.20;99.90
4725;DHT22;2376;53.544;10.226;2022-12-18T13:56:31;1.20;99.90
4725;DHT22;2376;53.544;10.226;2022-12-18T13:59:13;1.10;99.90
4725;DHT22;2376;53.544;10.226;2022-12-18T14:01:50;1.00;99.90
4725;DHT22;2376;53.544;10.226;2022-12-18T14:04:22;1.10;99.90
4725;DHT22;2376;53.544;10.226;2022-12-18T14:06:52;1.10;99.90
4725;DHT22;2376;53.544;10.226;2022-12-18T14:09:23;1.00;99.90
4725;DHT22;2376;53.544;10.226;2022-12-18T14:11:51;0.90;99.90
4725;DHT22;2376;53.544;10.226;2022-12-18T14:14:18;1.00;99.90
4725;DHT22;2376;53.544;10.226;2022-12-18T14:16:46;1.00;99.90
4725;DHT22;2376;53.544;10.226;2022-12-18T14:19:15;0.80;99.90
4725;DHT22;2376;53.544;10.226;2022-12-18T14:21:47;0.80;99.90
4725;DHT22;2376;53.544;10.226;2022-12-18T14:24:16;0.70;99.90
4725;DHT22;2376;53.544;10.226;2022-12-18T14:26:45;0.80;99.90
4725;DHT22;2376;53.544;10.226;2022-12-18T14:29:21;0.70;99.90
4725;DHT22;2376;53.544;10.226;2022-12-18T14:32:04;0.60;99.90
4725;DHT22;2376;53.544;10.226;2022-12-18T14:34:30;0.70;99.90
4725;DHT22;2376;53.544;10.226;2022-12-18T14:36:59;0.70;99.90
4725;DHT22;2376;53.544;10.226;2022-12-18T14:39:25;0.60;99.90
4725;DHT22;2376;53.544;10.226;2022-12-18T14:41:52;0.60;99.90
4725;DHT22;2376;53.544;10.226;2022-12-18T14:44:19;0.40;99.90
4725;DHT22;2376;53.544;10.226;2022-12-18T14:46:47;0.20;99.90
4725;DHT22;2376;53.544;10.226;2022-12-18T14:49:20;0.10;99.90
4725;DHT22;2376;53.544;10.226;2022-12-18T14:51:49;0.00;99.90
4725;DHT22;2376;53.544;10.226;2022-12-18T14:54:19;-0.10;99.90
4725;DHT22;2376;53.544;10.226;2022-12-18T14:56:47;-0.10;99.90
4725;DHT22;2376;53.544;10.226;2022-12-18T14:59:16;-0.10;99.90
4725;DHT22;2376;53.544;10.226;2022-12-18T15:01:47;-0.10;99.90
4725;DHT22;2376;53.544;10.226;2022-12-18T15:04:27;-0.10;99.90
4725;DHT22;2376;53.544;10.226;2022-12-18T15:07:06;0.00;99.90
4725;DHT22;2376;53.544;10.226;2022-12-18T15:09:35;0.00;99.90
4725;DHT22;2376;53.544;10.226;2022-12-18T15:12:03;0.00;99.90
4725;DHT22;2376;53.544;10.226;2022-12-18T15:14:35;0.00;99.90
4725;DHT22;2376;53.544;10.226;2022-12-18T15:17:06;-0.10;99.90
4725;DHT22;2376;53.544;10.226;2022-12-18T15:19:42;-0.20;99.90
4725;DHT22;2376;53.544;10.226;2022-12-18T15:22:19;-0.20;99.90
4725;DHT22;2376;53.544;10.226;2022-12-18T15:24:48;-0.30;99.90
4725;DHT22;2376;53.544;10.226;2022-12-18T15:27:27;-0.30;99.90
4725;DHT22;2376;53.544;10.226;2022-12-18T15:30:18;-0.40;99.90
4725;DHT22;2376;53.544;10.226;2022-12-18T15:32:45;-0.60;99.90
4725;DHT22;2376;53.544;10.226;2022-12-18T15:35:15;-0.60;99.90
4725;DHT22;2376;53.544;10.226;2022-12-18T15:37:43;-0.60;99.90
4725;DHT22;2376;53.544;10.226;2022-12-18T15:40:14;-0.60;99.90
4725;DHT22;2376;53.544;10.226;2022-12-18T15:42:41;-0.50;99.90
4725;DHT22;2376;53.544;10.226;2022-12-18T15:45:25;-0.50;99.90
4725;DHT22;2376;53.544;10.226;2022-12-18T15:47:52;-0.50;99.90
4725;DHT22;2376;53.544;10.226;2022-12-18T15:50:19;-0.50;99.90
4725;DHT22;2376;53.544;10.226;2022-12-18T15:52:48;-0.50;99.90
4725;DHT22;2376;53.544;10.226;2022-12-18T15:55:19;-0.50;99.90
4725;DHT22;2376;53.544;10.226;2022-12-18T15:58:03;-0.60;99.90
4725;DHT22;2376;53.544;10.226;2022-12-18T16:00:31;-0.60;99.90
4725;DHT22;2376;53.544;10.226;2022-12-18T16:02:58;-0.70;99.90
4725;DHT22;2376;53.544;10.226;2022-12-18T16:05:26;-0.90;99.90
4725;DHT22;2376;53.544;10.226;2022-12-18T16:07:54;-1.00;99.90
4725;DHT22;2376;53.544;10.226;2022-12-18T16:10:22;-0.90;99.90
4725;DHT22;2376;53.544;10.226;2022-12-18T16:12:50;-0.80;99.90
4725;DHT22;2376;53.544;10.226;2022-12-18T16:15:17;-0.90;99.90
4725;DHT22;2376;53.544;10.226;2022-12-18T16:17:44;-0.80;99.90
4725;DHT22;2376;53.544;10.226;2022-12-18T16:20:12;-0.80;99.90
4725;DHT22;2376;53.544;10.226;2022-12-18T16:22:41;-0.80;99.90